Etusivu
METAR-TAF:

METAR-TAF

Lentoasemat :

Västerås, Ruotsi

Västeråsin lentoasema

Leveyspiiri: 59-35N, Pituuspiiri: 016-38E, korkeus merenpinnasta: 6 m

Tämänhetkinen sää

Tämä raportti tehtiin 26 minuuttia sitten, kello 20.20 UTC
Tuuli 3 kn eri suunnista
Lämpötila 14°C
Kosteus 67%
Ilmanpaine 1018 hPa
Näkyvyys 10 km tai enemmän

METAR: ESOW 212020Z AUTO VRB03KT 9999 NCD 14/08 Q1018

Aika: 22:46 (20:46 UTC)

Sääennuste

Tämä raportti tehtiin 6 tuntia ja 16 minuuttia sitten, kello 14.30 UTC
Ennuste voimassa 21. päivästä klo 15 UTC - 21. päivään klo 17 UTC
Tuuli 7 kn idästä/kaakosta
Näkyvyys 10 km tai enemmän
ei pilviä alle 1500 m:ssä eikä cumulonimbus-pilviä

TAF: ESOW 211430Z 2115/2117 12007KT CAVOK

Säähavainnot ja -ennusteet yli 4000 lentoasemalta (METAR- ja TAF-raportit).

Käytössä olevat sääasemat on merkitty karttaan keltaisilla ja punaisilla pisteillä.

Aseta hiiri pisteen päälle nähdäksesi sääaseman nimen.

Klikkaa sitten nähdäksesi säähavainnot ja -ennusteet.

Kartan vaihtaminen: klikkaa mustalla rastilla varustettuja vihreitä pisteitä, niin voit zoomata sisään; viivalla varustettua vihreää pistettä, niin voit zoomata ulos tai vihreitä nuolia, niin pääset viereisille kartoille.


METAR-TAF: